Time;durP1;ratioP1;P1;durP2;ratioP2;P2;SDS_P1;SDS_P2;PMS_P1;PMS_P2;Temp;Humidity;BMP_temperature;BMP_pressure;BME280_temperature;BME280_humidity;BME280_pressure;Samples;Min_cycle;Max_cycle;Signal;HPM_P1;HPM_P2
2022/10/08 00:00:09;;;;;;;6.20;3.25;;;18.10;65.70;;;;;;2347590;53;21721;-78
2022/10/08 00:02:36;;;;;;;4.68;2.60;;;18.10;65.70;;;;;;2359865;53;20979;-77
2022/10/08 00:05:02;;;;;;;5.20;2.70;;;18.10;65.80;;;;;;2346620;53;20991;-77
2022/10/08 00:07:31;;;;;;;6.07;2.92;;;18.10;65.90;;;;;;2572878;52;21002;-77
2022/10/08 00:09:57;;;;;;;3.97;2.17;;;18.00;65.90;;;;;;2346289;53;20996;-76
2022/10/08 00:12:24;;;;;;;5.93;2.83;;;18.10;65.90;;;;;;2600976;52;20986;-77
2022/10/08 00:14:51;;;;;;;7.37;2.42;;;18.00;65.90;;;;;;2325388;53;20975;-77
2022/10/08 00:17:17;;;;;;;4.00;2.08;;;18.00;65.90;;;;;;2355379;53;20958;-76
2022/10/08 00:19:43;;;;;;;5.15;2.72;;;18.00;65.90;;;;;;2587059;52;20951;-77
2022/10/08 00:22:09;;;;;;;6.00;3.05;;;18.00;65.90;;;;;;2405526;52;20963;-77
2022/10/08 00:24:37;;;;;;;4.93;2.70;;;17.90;65.90;;;;;;2376188;52;21859;-77
2022/10/08 00:27:04;;;;;;;4.18;2.53;;;18.00;66.10;;;;;;2365758;53;21017;-77
2022/10/08 00:29:31;;;;;;;5.30;2.40;;;17.90;66.10;;;;;;2340249;53;20909;-76
2022/10/08 00:31:57;;;;;;;4.43;2.67;;;17.90;66.00;;;;;;2586765;53;21528;-77
2022/10/08 00:34:26;;;;;;;7.18;2.35;;;17.90;66.00;;;;;;2361030;53;20982;-77
2022/10/08 00:36:53;;;;;;;5.05;2.60;;;17.90;66.00;;;;;;2356442;53;21078;-78
2022/10/08 00:39:21;;;;;;;5.20;2.53;;;17.90;66.10;;;;;;2342335;53;20964;-76
2022/10/08 00:41:51;;;;;;;4.85;2.53;;;17.90;66.10;;;;;;2491808;52;20919;-77
2022/10/08 00:44:54;;;;;;;3.92;2.15;;;17.80;66.10;;;;;;2490497;52;20960;-77
2022/10/08 00:47:45;;;;;;;6.00;2.22;;;17.80;65.90;;;;;;2509928;52;21042;-78
2022/10/08 00:50:17;;;;;;;4.03;2.00;;;17.80;66.20;;;;;;2345372;53;20910;-77
2022/10/08 00:52:55;;;;;;;4.15;1.83;;;17.80;66.20;;;;;;2346710;53;21107;-78
2022/10/08 00:55:22;;;;;;;4.55;2.25;;;17.80;66.30;;;;;;2560676;53;20925;-77
2022/10/08 00:57:49;;;;;;;4.22;2.00;;;17.80;66.30;;;;;;2370820;53;21443;-78
2022/10/08 01:00:18;;;;;;;8.20;2.33;;;17.80;66.30;;;;;;2349003;53;21004;-78
2022/10/08 01:02:45;;;;;;;3.28;1.83;;;17.80;66.40;;;;;;2517708;52;20968;-78
2022/10/08 01:05:12;;;;;;;6.07;2.00;;;17.80;66.50;;;;;;2358178;53;21033;-78
2022/10/08 01:07:51;;;;;;;3.95;1.92;;;17.80;66.60;;;;;;2345233;53;21082;-77
2022/10/08 01:10:30;;;;;;;4.97;2.20;;;17.80;66.60;;;;;;2586020;52;21084;-77
2022/10/08 01:15:35;;;;;;;4.25;2.12;;;17.80;66.60;;;;;;2441416;52;21025;-77
2022/10/08 01:18:18;;;;;;;5.22;1.70;;;17.90;66.30;;;;;;2533582;52;20992;-77
2022/10/08 01:22:23;;;;;;;3.85;1.95;;;17.80;66.40;;;;;;2351144;53;21442;-77
2022/10/08 01:27:42;;;;;;;4.00;1.85;;;17.80;66.50;;;;;;2416430;52;20956;-77
2022/10/08 01:30:15;;;;;;;3.50;1.87;;;17.80;66.50;;;;;;2600137;52;21062;-77
2022/10/08 01:32:47;;;;;;;5.10;1.90;;;17.80;66.50;;;;;;2485573;52;22003;-78
2022/10/08 01:35:19;;;;;;;3.80;2.15;;;17.80;66.50;;;;;;2462261;52;20950;-77
2022/10/08 01:37:48;;;;;;;5.72;1.98;;;17.80;66.50;;;;;;2392812;52;20930;-77
2022/10/08 01:40:17;;;;;;;3.45;2.10;;;17.80;66.50;;;;;;2346899;53;21022;-78
2022/10/08 01:42:44;;;;;;;3.53;1.95;;;17.80;66.50;;;;;;2350884;53;21023;-78
2022/10/08 01:45:14;;;;;;;4.87;2.33;;;17.80;66.50;;;;;;2352237;53;21391;-77
2022/10/08 01:47:40;;;;;;;4.07;1.98;;;17.80;66.50;;;;;;2351183;53;20940;-77
2022/10/08 01:50:12;;;;;;;4.00;2.00;;;17.80;66.50;;;;;;2351935;53;20998;-78
2022/10/08 01:52:46;;;;;;;3.67;2.00;;;17.80;66.40;;;;;;2361243;53;20883;-77
2022/10/08 01:55:16;;;;;;;5.00;1.70;;;17.80;66.50;;;;;;2350560;53;21908;-77
2022/10/08 01:57:44;;;;;;;3.58;1.85;;;17.80;66.50;;;;;;2367489;53;20906;-77
2022/10/08 02:00:12;;;;;;;3.70;1.92;;;17.70;66.40;;;;;;2351402;53;20949;-77
2022/10/08 02:02:40;;;;;;;3.45;1.95;;;17.70;66.40;;;;;;2415975;52;20996;-77
2022/10/08 02:05:07;;;;;;;4.20;1.98;;;17.70;66.40;;;;;;2345914;53;20951;-77
2022/10/08 02:07:37;;;;;;;4.68;2.50;;;17.70;66.40;;;;;;2344592;53;21473;-77
2022/10/08 02:10:22;;;;;;;4.35;2.30;;;17.70;66.50;;;;;;2421701;52;20926;-77
2022/10/08 02:12:48;;;;;;;5.50;2.53;;;17.70;66.60;;;;;;2349647;53;21062;-77
2022/10/08 02:15:22;;;;;;;3.60;1.77;;;17.70;67.50;;;;;;2457938;52;20975;-77
2022/10/08 02:17:57;;;;;;;3.67;1.77;;;17.70;66.80;;;;;;2372155;53;20942;-77
2022/10/08 02:20:31;;;;;;;4.95;1.95;;;17.70;66.80;;;;;;2371966;53;21381;-77
2022/10/08 02:23:03;;;;;;;3.95;2.00;;;17.70;66.80;;;;;;2348564;53;20996;-78
2022/10/08 02:25:40;;;;;;;13.13;2.37;;;17.70;66.90;;;;;;2343313;53;21057;-77
2022/10/08 02:28:19;;;;;;;4.78;2.08;;;17.70;66.90;;;;;;2433278;53;20976;-77
2022/10/08 02:30:51;;;;;;;3.40;1.65;;;17.70;66.80;;;;;;2377347;53;20928;-77
2022/10/08 02:33:25;;;;;;;3.78;1.95;;;17.70;66.80;;;;;;2350660;53;20958;-78
2022/10/08 02:35:53;;;;;;;3.03;1.85;;;17.70;66.70;;;;;;2349641;53;21030;-77
2022/10/08 02:38:22;;;;;;;5.28;2.53;;;17.70;66.60;;;;;;2350400;53;21002;-77
2022/10/08 02:40:50;;;;;;;5.65;2.60;;;17.70;66.60;;;;;;2346367;53;20928;-78
2022/10/08 02:43:21;;;;;;;5.55;2.67;;;17.70;66.70;;;;;;2343548;53;21016;-78
2022/10/08 02:46:22;;;;;;;5.32;2.60;;;17.60;66.70;;;;;;2371802;53;21233;-78
2022/10/08 02:48:58;;;;;;;5.07;1.75;;;17.70;66.70;;;;;;2342410;53;20952;-77
2022/10/08 02:51:24;;;;;;;4.12;2.05;;;17.70;66.90;;;;;;2345239;53;21231;-77
2022/10/08 02:53:51;;;;;;;3.45;1.70;;;17.60;66.80;;;;;;2353058;53;21065;-77
2022/10/08 02:58:20;;;;;;;3.83;1.90;;;17.60;66.80;;;;;;2429708;52;20998;-78
2022/10/08 03:00:53;;;;;;;2.65;1.48;;;17.60;66.70;;;;;;2346353;53;20987;-77
2022/10/08 03:03:27;;;;;;;2.95;1.40;;;17.60;66.60;;;;;;2345937;53;20955;-77
2022/10/08 03:05:54;;;;;;;3.22;1.70;;;17.60;66.70;;;;;;2337474;53;20983;-78
2022/10/08 03:08:20;;;;;;;3.00;1.60;;;17.60;66.70;;;;;;2341856;53;21076;-78
2022/10/08 03:10:46;;;;;;;4.00;2.50;;;17.60;66.70;;;;;;2348072;53;20906;-77
2022/10/08 03:13:12;;;;;;;4.00;2.30;;;17.60;66.70;;;;;;2331819;54;21009;-77
2022/10/08 03:15:39;;;;;;;4.07;2.35;;;17.60;66.80;;;;;;2329687;53;21048;-77
2022/10/08 03:18:07;;;;;;;4.37;2.00;;;17.60;66.90;;;;;;2343470;54;21019;-78
2022/10/08 03:20:43;;;;;;;3.37;2.10;;;17.60;67.00;;;;;;2587338;53;20979;-77
2022/10/08 03:23:09;;;;;;;3.42;1.98;;;17.60;66.90;;;;;;2354094;53;20964;-77
2022/10/08 03:25:36;;;;;;;3.78;1.80;;;17.50;66.90;;;;;;2414861;52;20952;-77
2022/10/08 03:28:03;;;;;;;4.50;2.08;;;17.50;66.90;;;;;;2339920;53;21878;-77
2022/10/08 03:30:29;;;;;;;3.33;1.73;;;17.50;66.90;;;;;;2360035;53;20910;-77
2022/10/08 03:32:57;;;;;;;3.75;2.12;;;17.50;66.90;;;;;;2329679;54;21009;-77
2022/10/08 03:35:25;;;;;;;5.60;2.17;;;17.50;66.80;;;;;;2330100;54;20997;-77
2022/10/08 03:37:52;;;;;;;5.43;2.37;;;17.50;66.80;;;;;;2340854;54;21514;-77
2022/10/08 03:40:20;;;;;;;5.65;2.92;;;17.50;66.80;;;;;;2345539;53;21831;-77
2022/10/08 03:42:46;;;;;;;4.32;2.67;;;17.50;66.90;;;;;;2336585;53;21020;-78
2022/10/08 03:45:12;;;;;;;4.95;3.05;;;17.50;67.00;;;;;;2338316;53;21000;-77
2022/10/08 03:47:42;;;;;;;4.70;2.90;;;17.50;67.10;;;;;;2356946;53;21984;-77
2022/10/08 03:50:08;;;;;;;6.65;3.40;;;17.50;67.30;;;;;;2321537;54;20919;-77
2022/10/08 03:52:34;;;;;;;4.97;2.87;;;17.50;67.40;;;;;;2345313;53;20900;-77
2022/10/08 03:55:04;;;;;;;4.50;2.62;;;17.50;67.60;;;;;;2357719;53;20973;-77
2022/10/08 03:57:31;;;;;;;4.15;2.55;;;17.50;67.60;;;;;;2340213;53;21092;-77
2022/10/08 03:59:58;;;;;;;5.12;3.20;;;17.50;67.70;;;;;;2343325;53;21821;-77
2022/10/08 04:02:25;;;;;;;5.40;3.03;;;17.50;67.70;;;;;;2341324;53;21797;-76
2022/10/08 04:04:51;;;;;;;4.55;3.00;;;17.50;67.80;;;;;;2534541;52;21039;-76
2022/10/08 04:07:18;;;;;;;4.90;3.30;;;17.50;67.90;;;;;;2343325;53;20928;-77
2022/10/08 04:09:44;;;;;;;7.07;3.55;;;17.60;68.10;;;;;;2319440;54;20996;-77
2022/10/08 04:12:53;;;;;;;4.97;2.70;;;17.60;68.20;;;;;;2341571;53;20972;-77
2022/10/08 04:15:19;;;;;;;7.32;3.55;;;17.60;68.20;;;;;;2339901;54;20980;-77
2022/10/08 04:17:45;;;;;;;5.32;3.50;;;17.60;68.20;;;;;;2358259;53;20955;-77
2022/10/08 04:20:12;;;;;;;5.35;3.17;;;17.70;68.30;;;;;;2320548;54;21001;-77
2022/10/08 04:22:38;;;;;;;5.15;3.00;;;17.70;68.30;;;;;;2320173;54;21712;-78
2022/10/08 04:25:25;;;;;;;6.95;3.10;;;17.70;68.30;;;;;;2472244;53;21418;-77
2022/10/08 04:27:52;;;;;;;6.35;3.60;;;17.80;68.20;;;;;;2421062;52;21104;-77
2022/10/08 04:30:19;;;;;;;4.50;2.83;;;17.80;68.30;;;;;;2460621;53;21068;-77
2022/10/08 04:32:46;;;;;;;5.72;3.00;;;17.80;68.30;;;;;;2528044;52;21541;-76
2022/10/08 04:35:13;;;;;;;5.82;3.15;;;17.80;68.20;;;;;;2441462;53;21013;-77
2022/10/08 04:37:39;;;;;;;4.95;2.90;;;17.80;68.20;;;;;;2525234;52;20942;-77
2022/10/08 04:40:06;;;;;;;5.53;3.17;;;17.80;68.00;;;;;;2355334;53;21001;-77
2022/10/08 04:42:32;;;;;;;4.35;2.92;;;17.90;68.00;;;;;;2318802;54;22032;-77
2022/10/08 04:44:59;;;;;;;4.00;2.70;;;17.90;67.90;;;;;;2313807;54;21902;-77
2022/10/08 04:47:47;;;;;;;4.95;3.25;;;17.90;67.90;;;;;;2326501;54;20932;-77
2022/10/08 04:50:14;;;;;;;4.43;2.58;;;17.90;67.50;;;;;;2436817;53;21093;-77
2022/10/08 04:52:41;;;;;;;4.22;2.83;;;17.90;67.70;;;;;;2297412;53;20979;-77
2022/10/08 04:55:26;;;;;;;4.35;2.90;;;17.90;67.50;;;;;;2300434;54;21055;-77
2022/10/08 04:58:01;;;;;;;5.07;2.72;;;17.90;67.10;;;;;;2337636;53;21416;-77
2022/10/08 05:00:28;;;;;;;4.87;3.05;;;17.90;67.10;;;;;;2351568;53;21048;-77
2022/10/08 05:02:55;;;;;;;6.18;3.60;;;17.80;67.10;;;;;;2336452;53;20981;-78
2022/10/08 05:05:22;;;;;;;6.80;4.07;;;17.80;67.20;;;;;;2335632;53;21840;-78
2022/10/08 05:07:49;;;;;;;5.95;3.58;;;17.80;67.30;;;;;;2520595;54;20989;-77
2022/10/08 05:10:17;;;;;;;5.15;3.30;;;17.70;67.20;;;;;;2304163;54;21048;-77
2022/10/08 05:12:43;;;;;;;5.07;3.62;;;17.70;67.30;;;;;;2342150;53;21468;-77
2022/10/08 05:15:41;;;;;;;7.07;3.50;;;17.70;67.40;;;;;;2291882;54;21093;-77
2022/10/08 05:18:07;;;;;;;5.05;2.97;;;17.70;67.30;;;;;;2338009;53;20954;-78
2022/10/08 05:20:36;;;;;;;4.05;2.60;;;17.70;67.40;;;;;;2433755;53;21020;-77
2022/10/08 05:23:14;;;;;;;4.25;2.60;;;17.70;67.30;;;;;;2340312;53;20935;-77
2022/10/08 05:25:40;;;;;;;4.00;2.67;;;17.70;67.10;;;;;;2343982;53;21004;-77
2022/10/08 05:28:07;;;;;;;4.37;3.00;;;17.60;67.10;;;;;;2344927;53;22028;-77
2022/10/08 05:30:34;;;;;;;5.15;3.03;;;17.60;67.00;;;;;;2341285;53;20964;-77
2022/10/08 05:33:00;;;;;;;6.62;3.40;;;17.60;67.10;;;;;;2582151;52;20968;-77
2022/10/08 05:35:28;;;;;;;7.50;3.58;;;17.60;67.00;;;;;;2343702;53;20977;-77
2022/10/08 05:37:55;;;;;;;6.53;3.28;;;17.60;67.10;;;;;;2342661;53;21031;-78
2022/10/08 05:40:30;;;;;;;5.28;3.20;;;17.50;67.00;;;;;;2339985;53;21019;-77
2022/10/08 05:42:57;;;;;;;5.35;3.62;;;17.50;67.00;;;;;;2345776;53;21877;-78
2022/10/08 05:45:50;;;;;;;5.68;3.78;;;17.50;67.20;;;;;;2340061;54;21828;-77
2022/10/08 05:48:17;;;;;;;4.85;3.05;;;17.50;67.00;;;;;;2343737;53;20907;-78
2022/10/08 05:50:44;;;;;;;5.22;3.40;;;17.50;67.20;;;;;;2450771;53;21038;-77
2022/10/08 05:53:10;;;;;;;5.68;3.15;;;17.50;67.10;;;;;;2336597;53;21831;-77
2022/10/08 05:55:36;;;;;;;5.15;3.25;;;17.50;67.10;;;;;;2585683;52;21049;-77
2022/10/08 05:58:02;;;;;;;7.18;3.75;;;17.40;66.90;;;;;;2580489;52;21808;-77
2022/10/08 06:00:41;;;;;;;6.18;3.85;;;17.40;66.80;;;;;;2338905;53;20974;-77
2022/10/08 06:03:08;;;;;;;6.93;3.42;;;17.40;66.70;;;;;;2336470;53;21006;-77
2022/10/08 06:05:35;;;;;;;5.18;3.12;;;17.40;66.90;;;;;;2345667;53;21012;-77
2022/10/08 06:08:01;;;;;;;6.70;3.80;;;17.40;66.90;;;;;;2350172;53;21054;-76
2022/10/08 06:10:28;;;;;;;4.78;3.22;;;17.30;66.90;;;;;;2337932;53;20982;-77
2022/10/08 06:12:56;;;;;;;6.20;3.40;;;17.30;67.00;;;;;;2346978;53;21046;-77
2022/10/08 06:15:32;;;;;;;6.90;3.87;;;17.30;67.00;;;;;;2340627;53;20935;-77
2022/10/08 06:18:00;;;;;;;6.68;3.45;;;17.30;66.90;;;;;;2339795;53;20936;-77
2022/10/08 06:20:27;;;;;;;6.53;3.30;;;17.30;67.00;;;;;;2293305;53;21884;-77
2022/10/08 06:22:57;;;;;;;4.07;2.58;;;17.20;67.00;;;;;;2316248;53;21044;-77
2022/10/08 06:25:23;;;;;;;6.00;3.17;;;17.20;67.00;;;;;;2317908;53;21872;-77
2022/10/08 06:27:50;;;;;;;4.87;2.95;;;17.20;67.00;;;;;;2345878;53;21232;-77
2022/10/08 06:30:16;;;;;;;5.18;2.97;;;17.20;67.00;;;;;;2425565;52;20954;-76
2022/10/08 06:32:43;;;;;;;4.40;2.60;;;17.20;67.10;;;;;;2520178;53;21313;-77
2022/10/08 06:35:10;;;;;;;8.45;3.30;;;17.20;67.20;;;;;;2333237;53;20988;-77
2022/10/08 06:37:36;;;;;;;6.55;3.40;;;17.20;67.20;;;;;;2354908;53;21033;-77
2022/10/08 06:40:05;;;;;;;4.80;3.00;;;17.20;67.30;;;;;;2337199;53;20959;-77
2022/10/08 06:43:06;;;;;;;4.30;2.70;;;17.10;67.20;;;;;;2336250;54;20956;-78
2022/10/08 06:45:39;;;;;;;3.45;2.22;;;17.20;67.20;;;;;;2375347;53;20966;-77
2022/10/08 06:48:11;;;;;;;5.53;3.00;;;17.20;67.40;;;;;;2346282;53;21036;-77
2022/10/08 06:50:40;;;;;;;4.37;2.28;;;17.20;67.50;;;;;;2437852;53;20930;-77
2022/10/08 06:53:10;;;;;;;5.22;2.90;;;17.20;67.60;;;;;;2407072;53;21015;-77
2022/10/08 06:55:37;;;;;;;5.25;3.05;;;17.20;67.70;;;;;;2344124;53;20973;-77
2022/10/08 06:58:03;;;;;;;6.32;3.30;;;17.20;67.80;;;;;;2335687;53;20979;-77
2022/10/08 07:00:32;;;;;;;4.35;2.78;;;17.20;68.60;;;;;;2337698;54;21055;-77
2022/10/08 07:02:58;;;;;;;4.40;2.65;;;17.30;68.10;;;;;;2586347;52;21756;-77
2022/10/08 07:05:25;;;;;;;4.62;2.62;;;17.30;68.20;;;;;;2334310;53;21786;-77
2022/10/08 07:07:52;;;;;;;5.72;2.83;;;17.30;68.20;;;;;;2579546;53;21881;-77
2022/10/08 07:10:18;;;;;;;4.28;2.17;;;17.30;68.30;;;;;;2358669;53;21453;-77
2022/10/08 07:12:45;;;;;;;5.28;2.33;;;17.30;68.30;;;;;;2367564;53;20993;-78
2022/10/08 07:15:12;;;;;;;4.47;1.62;;;17.40;68.40;;;;;;2339410;53;21840;-77
2022/10/08 07:17:44;;;;;;;6.97;2.12;;;17.50;68.50;;;;;;2343867;53;21068;-77
2022/10/08 07:20:10;;;;;;;4.60;2.20;;;17.50;68.50;;;;;;2348028;53;20966;-77
2022/10/08 07:22:58;;;;;;;3.33;1.30;;;17.60;68.50;;;;;;2341710;54;20963;-77
2022/10/08 07:25:25;;;;;;;3.78;1.70;;;17.60;68.30;;;;;;2544775;53;21072;-77
2022/10/08 07:27:51;;;;;;;4.55;1.70;;;17.60;68.40;;;;;;2311474;54;21417;-77
2022/10/08 07:30:17;;;;;;;3.17;1.25;;;17.70;68.40;;;;;;2314084;54;21458;-77
2022/10/08 07:32:45;;;;;;;3.35;1.20;;;17.70;68.30;;;;;;2518075;53;21837;-77
2022/10/08 07:35:23;;;;;;;5.00;1.50;;;17.70;68.20;;;;;;2312638;53;21076;-78
2022/10/08 07:37:51;;;;;;;4.68;1.50;;;17.80;67.80;;;;;;2321171;53;20942;-77
2022/10/08 07:40:17;;;;;;;3.47;1.20;;;17.80;67.80;;;;;;2320647;53;20949;-77
2022/10/08 07:42:43;;;;;;;4.93;1.50;;;17.80;67.70;;;;;;2572039;52;20982;-77
2022/10/08 07:45:31;;;;;;;4.45;1.20;;;17.90;67.80;;;;;;2556143;53;20993;-77
2022/10/08 07:48:01;;;;;;;3.22;1.23;;;17.90;67.50;;;;;;2362192;53;20966;-77
2022/10/08 07:50:30;;;;;;;5.03;1.35;;;17.90;67.70;;;;;;2505981;53;21016;-77
2022/10/08 07:52:57;;;;;;;6.03;1.23;;;18.00;67.80;;;;;;2342812;53;20946;-77
2022/10/08 07:55:23;;;;;;;3.62;1.50;;;18.00;67.80;;;;;;2571249;53;21038;-78
2022/10/08 07:57:49;;;;;;;3.87;1.27;;;18.00;67.80;;;;;;2312947;53;22521;-78
2022/10/08 08:00:15;;;;;;;4.97;1.30;;;18.00;67.60;;;;;;2534264;53;20994;-77
2022/10/08 08:02:42;;;;;;;3.05;1.10;;;18.10;67.50;;;;;;2321662;53;20997;-77
2022/10/08 08:05:10;;;;;;;4.43;1.17;;;18.10;67.40;;;;;;2309565;53;20953;-77
2022/10/08 08:07:36;;;;;;;3.30;0.98;;;18.20;67.40;;;;;;2327020;53;21018;-77
2022/10/08 08:10:04;;;;;;;4.15;1.50;;;18.20;67.30;;;;;;2426937;53;21100;-78
2022/10/08 08:12:30;;;;;;;5.20;1.10;;;18.20;67.20;;;;;;2564249;53;20982;-78
2022/10/08 08:14:57;;;;;;;3.75;1.10;;;18.20;67.00;;;;;;2573470;53;21002;-77
2022/10/08 08:17:24;;;;;;;4.07;1.10;;;18.30;67.00;;;;;;2511954;52;20989;-77
2022/10/08 08:19:50;;;;;;;3.37;0.98;;;18.40;67.10;;;;;;2322611;53;20978;-77
2022/10/08 08:22:17;;;;;;;2.72;0.90;;;18.30;66.80;;;;;;2322577;53;20946;-77
2022/10/08 08:24:43;;;;;;;5.57;1.23;;;18.40;66.80;;;;;;2466464;53;20991;-77
2022/10/08 08:27:09;;;;;;;2.85;1.05;;;18.40;66.70;;;;;;2326701;53;21037;-78
2022/10/08 08:29:39;;;;;;;3.35;1.10;;;18.50;66.70;;;;;;2569759;53;20971;-79
2022/10/08 08:32:05;;;;;;;5.20;1.00;;;18.50;66.60;;;;;;2377177;52;21034;-77
2022/10/08 08:34:31;;;;;;;3.12;1.00;;;18.50;66.70;;;;;;2326736;53;20921;-77
2022/10/08 08:37:03;;;;;;;3.45;1.08;;;18.60;66.70;;;;;;2330403;53;21009;-77
2022/10/08 08:39:30;;;;;;;4.93;1.10;;;18.60;66.40;;;;;;2321565;53;21126;-77
2022/10/08 08:42:26;;;;;;;3.05;0.85;;;18.60;66.50;;;;;;2313785;53;20981;-77
2022/10/08 08:44:59;;;;;;;2.72;0.90;;;18.70;65.60;;;;;;2321476;54;21058;-77
2022/10/08 08:47:48;;;;;;;4.93;1.10;;;18.70;65.70;;;;;;2335269;53;20936;-77
2022/10/08 08:50:26;;;;;;;3.30;0.90;;;18.80;66.30;;;;;;2333291;53;20953;-77
2022/10/08 08:52:54;;;;;;;3.40;0.82;;;18.80;66.10;;;;;;2308334;53;21813;-77
2022/10/08 08:55:33;;;;;;;2.67;0.95;;;18.80;66.20;;;;;;2314790;53;20938;-77
2022/10/08 08:59:33;;;;;;;5.35;1.00;;;18.90;65.90;;;;;;2379221;53;20905;-77
2022/10/08 09:02:02;;;;;;;3.03;0.82;;;18.90;65.60;;;;;;2330917;53;21113;-77
2022/10/08 09:04:41;;;;;;;3.08;0.90;;;19.00;65.90;;;;;;2343763;53;21111;-77
2022/10/08 09:07:16;;;;;;;5.18;0.93;;;19.00;65.10;;;;;;2513475;52;21388;-78
2022/10/08 09:09:55;;;;;;;3.05;1.12;;;19.10;65.40;;;;;;2349158;53;21846;-78
2022/10/08 09:12:36;;;;;;;3.08;1.08;;;19.20;65.20;;;;;;2599604;52;20974;-78
2022/10/08 09:15:04;;;;;;;3.78;1.05;;;19.10;64.50;;;;;;2354685;53;20941;-77
2022/10/08 09:17:32;;;;;;;4.97;1.20;;;19.20;65.10;;;;;;2350865;53;20983;-77
2022/10/08 09:19:59;;;;;;;4.72;0.90;;;19.20;65.00;;;;;;2352654;53;20984;-77
2022/10/08 09:22:38;;;;;;;5.18;1.20;;;19.30;65.20;;;;;;2341306;53;20936;-77
2022/10/08 09:25:30;;;;;;;2.33;0.93;;;19.30;64.90;;;;;;2340487;53;21024;-77
2022/10/08 09:28:02;;;;;;;4.75;1.30;;;19.40;64.50;;;;;;2475510;53;21016;-78
2022/10/08 09:30:35;;;;;;;3.78;0.90;;;19.40;64.40;;;;;;2345641;53;21014;-78
2022/10/08 09:33:33;;;;;;;4.25;1.15;;;19.50;64.50;;;;;;2423302;53;20998;-77
2022/10/08 09:36:00;;;;;;;3.55;0.95;;;19.50;63.90;;;;;;2485266;53;22039;-77
2022/10/08 09:38:27;;;;;;;3.97;1.20;;;19.60;64.70;;;;;;2601441;52;20981;-77
2022/10/08 09:41:16;;;;;;;2.60;1.00;;;19.60;64.70;;;;;;2398246;53;21023;-78
2022/10/08 09:43:44;;;;;;;4.07;0.98;;;19.70;63.80;;;;;;2381311;53;20943;-77
2022/10/08 09:46:30;;;;;;;2.60;1.10;;;19.80;64.60;;;;;;2555954;52;20955;-78
2022/10/08 09:49:08;;;;;;;4.85;1.30;;;19.80;63.30;;;;;;2591597;52;20934;-77
2022/10/08 09:51:35;;;;;;;3.37;1.40;;;19.90;64.30;;;;;;2346954;53;21023;-78
2022/10/08 09:54:01;;;;;;;4.07;1.40;;;19.90;64.30;;;;;;2339283;53;20956;-77
2022/10/08 09:56:28;;;;;;;4.25;1.33;;;20.00;64.20;;;;;;2577757;53;20953;-77
2022/10/08 09:58:59;;;;;;;3.70;1.37;;;20.10;64.00;;;;;;2343731;53;21456;-78
2022/10/08 10:01:53;;;;;;;3.42;1.30;;;20.10;63.60;;;;;;2583720;52;21459;-77
2022/10/08 10:04:35;;;;;;;3.65;1.33;;;20.20;62.70;;;;;;2333966;53;20960;-77
2022/10/08 10:07:04;;;;;;;6.30;1.27;;;20.30;62.70;;;;;;2344950;53;21874;-76
2022/10/08 10:09:38;;;;;;;2.58;1.12;;;20.30;63.40;;;;;;2358744;53;20965;-77
2022/10/08 10:12:34;;;;;;;2.90;1.10;;;20.40;63.10;;;;;;2346585;53;20983;-77
2022/10/08 10:15:08;;;;;;;3.78;1.40;;;20.40;63.00;;;;;;2372697;53;20985;-77
2022/10/08 10:23:29;;;;;;;2.80;0.95;;;20.50;63.40;;;;;;2361083;53;21017;-77
2022/10/08 10:26:39;;;;;;;5.07;1.50;;;20.50;62.60;;;;;;2574246;53;20932;-77
2022/10/08 10:31:08;;;;;;;3.58;1.02;;;20.70;61.30;;;;;;2345519;53;20999;-79
2022/10/08 10:33:58;;;;;;;4.57;1.30;;;20.70;61.20;;;;;;2370901;53;20995;-79
2022/10/08 10:36:40;;;;;;;2.95;1.00;;;20.70;61.30;;;;;;2342925;53;21054;-78
2022/10/08 10:39:35;;;;;;;2.85;1.08;;;20.70;61.50;;;;;;2343218;53;20916;-78
2022/10/08 10:42:49;;;;;;;6.28;1.23;;;20.80;61.90;;;;;;2362460;53;21028;-77
2022/10/08 10:45:20;;;;;;;6.05;1.40;;;20.80;61.40;;;;;;2377605;52;21544;-77
2022/10/08 10:48:02;;;;;;;6.87;1.12;;;20.80;61.80;;;;;;2337962;53;20977;-78
2022/10/08 11:03:28;;;;;;;3.67;1.25;;;20.80;61.00;;;;;;2377451;53;21899;-78
2022/10/08 11:06:04;;;;;;;4.25;1.48;;;20.90;61.00;;;;;;2341215;53;21366;-77
2022/10/08 11:08:46;;;;;;;4.62;1.65;;;21.00;61.50;;;;;;2343576;53;21012;-77
2022/10/08 11:13:54;;;;;;;3.25;1.25;;;21.00;60.50;;;;;;2575237;53;21653;-77
2022/10/08 11:17:48;;;;;;;3.90;0.98;;;21.00;60.80;;;;;;2514095;53;21020;-77
2022/10/08 11:20:36;;;;;;;3.12;1.00;;;21.00;60.10;;;;;;2365179;53;21268;-77
2022/10/08 11:24:42;;;;;;;3.03;1.02;;;21.00;59.80;;;;;;2334092;53;20991;-77
2022/10/08 11:27:21;;;;;;;3.72;1.12;;;21.00;59.90;;;;;;2590145;53;20992;-78
2022/10/08 11:30:01;;;;;;;3.12;1.37;;;21.10;60.40;;;;;;2346872;53;20919;-78
2022/10/08 11:32:38;;;;;;;5.18;1.17;;;21.00;60.40;;;;;;2346398;54;21021;-77
2022/10/08 11:36:43;;;;;;;3.35;0.90;;;21.10;59.90;;;;;;2588527;52;21044;-78
2022/10/08 11:42:03;;;;;;;4.95;1.10;;;21.10;59.90;;;;;;2321858;54;21615;-78
2022/10/08 11:44:31;;;;;;;7.57;1.20;;;21.20;59.50;;;;;;2335427;54;20984;-78
2022/10/08 11:54:04;;;;;;;5.60;1.00;;;21.20;60.10;;;;;;2339068;54;20940;-77
2022/10/08 11:56:32;;;;;;;3.22;0.85;;;21.20;59.30;;;;;;2343965;53;20952;-77
2022/10/08 11:59:00;;;;;;;3.67;1.00;;;21.30;60.40;;;;;;2336945;53;20959;-77
2022/10/08 12:01:27;;;;;;;3.65;1.10;;;21.30;60.00;;;;;;2434879;53;20948;-78
2022/10/08 12:04:36;;;;;;;4.07;1.10;;;21.30;59.70;;;;;;2342839;54;21307;-77
2022/10/08 12:09:20;;;;;;;3.92;1.17;;;21.30;58.70;;;;;;2339919;53;20940;-79
2022/10/08 12:11:52;;;;;;;2.40;0.90;;;21.30;58.90;;;;;;2590708;53;20944;-78
2022/10/08 12:14:31;;;;;;;3.60;1.23;;;21.40;59.40;;;;;;2346825;53;20959;-77
2022/10/08 12:17:07;;;;;;;4.53;1.02;;;21.40;58.90;;;;;;2340610;54;20952;-78
2022/10/08 12:20:00;;;;;;;3.95;1.17;;;21.40;58.70;;;;;;2362550;53;20995;-79
2022/10/08 12:23:05;;;;;;;2.78;1.05;;;21.40;58.10;;;;;;2341300;54;20924;-78
2022/10/08 12:26:17;;;;;;;3.10;1.23;;;21.40;58.00;;;;;;2411360;53;20944;-78
2022/10/08 12:29:29;;;;;;;3.40;1.17;;;21.50;58.00;;;;;;2338875;54;21038;-77
2022/10/08 12:32:01;;;;;;;5.30;1.10;;;21.50;57.80;;;;;;2589761;53;20988;-78
2022/10/08 12:34:27;;;;;;;;;;;21.50;58.30;;;;;;2384527;53;20912;-78
2022/10/08 12:37:01;;;;;;;2.15;0.88;;;21.50;58.20;;;;;;2352492;53;20058;-77
2022/10/08 12:39:35;;;;;;;3.65;1.00;;;21.50;58.30;;;;;;2341707;54;21738;-78
2022/10/08 12:45:40;;;;;;;2.83;0.82;;;21.50;57.90;;;;;;2340199;53;21421;-78
2022/10/08 12:48:37;;;;;;;4.18;0.90;;;21.50;57.80;;;;;;2337297;53;20981;-78
2022/10/08 12:53:44;;;;;;;3.25;1.02;;;21.60;57.50;;;;;;2589902;53;20936;-78
2022/10/08 12:56:17;;;;;;;2.95;1.20;;;21.60;57.80;;;;;;2410551;53;20928;-80
2022/10/08 12:58:43;;;;;;;;;;;21.50;58.10;;;;;;2408893;53;20992;-79
2022/10/08 13:01:09;;;;;;;2.25;0.75;;;21.60;58.10;;;;;;2343729;53;20115;-78
2022/10/08 13:03:36;;;;;;;4.68;1.50;;;21.50;58.40;;;;;;2367645;53;20924;-77
2022/10/08 13:09:34;;;;;;;2.72;0.88;;;21.50;58.10;;;;;;2344092;54;21034;-79
2022/10/08 13:12:02;;;;;;;2.67;0.82;;;21.60;57.70;;;;;;2591855;52;20978;-80
2022/10/08 13:14:33;;;;;;;3.05;0.80;;;21.60;57.90;;;;;;2362057;53;20991;-79
2022/10/08 13:17:00;;;;;;;3.20;0.95;;;21.60;57.70;;;;;;2590742;53;20964;-77
2022/10/08 13:19:29;;;;;;;3.22;0.70;;;21.60;57.80;;;;;;2344138;54;21004;-79
2022/10/08 13:22:00;;;;;;;3.92;1.00;;;21.60;58.00;;;;;;2343733;54;21722;-78
2022/10/08 13:24:28;;;;;;;4.50;0.90;;;21.60;57.20;;;;;;2585172;53;20961;-79
2022/10/08 13:26:54;;;;;;;3.75;0.80;;;21.60;57.10;;;;;;2337741;54;20967;-79
2022/10/08 13:29:26;;;;;;;2.58;0.70;;;21.60;57.20;;;;;;2335795;54;20997;-79
2022/10/08 13:32:03;;;;;;;;;;;21.60;56.70;;;;;;2580980;53;20940;-78
2022/10/08 13:34:38;;;;;;;1.65;0.60;;;21.70;56.70;;;;;;2346695;54;20360;-79
2022/10/08 13:37:22;;;;;;;3.55;0.73;;;21.70;56.80;;;;;;2340642;53;20952;-78
2022/10/08 13:39:59;;;;;;;2.58;0.80;;;21.70;56.40;;;;;;2343571;54;21011;-78
2022/10/08 13:42:49;;;;;;;3.12;0.80;;;21.70;56.90;;;;;;2337651;54;20995;-77
2022/10/08 13:45:23;;;;;;;2.15;0.55;;;21.70;56.70;;;;;;2342431;53;20920;-77
2022/10/08 13:47:49;;;;;;;1.52;0.50;;;21.70;56.70;;;;;;2353857;53;20966;-77
2022/10/08 13:50:17;;;;;;;2.80;0.50;;;21.80;56.90;;;;;;2525080;53;1776579;-77
2022/10/08 13:52:53;;;;;;;1.35;0.47;;;21.80;56.60;;;;;;2349411;53;21765;-78
2022/10/08 13:55:26;;;;;;;2.37;0.60;;;21.80;56.20;;;;;;2341686;53;20980;-77
2022/10/08 13:57:58;;;;;;;2.62;0.40;;;21.80;55.80;;;;;;2419261;53;20985;-77
2022/10/08 14:00:25;;;;;;;1.52;0.57;;;21.90;56.50;;;;;;2350308;53;20920;-77
2022/10/08 14:02:52;;;;;;;1.62;0.45;;;21.90;56.10;;;;;;2341927;53;21433;-77
2022/10/08 14:05:21;;;;;;;1.65;0.55;;;21.90;56.00;;;;;;2348711;53;20992;-77
2022/10/08 14:07:52;;;;;;;1.25;0.45;;;21.90;55.50;;;;;;2340148;54;20984;-77
2022/10/08 14:10:18;;;;;;;1.80;0.50;;;21.90;55.70;;;;;;2339451;54;20988;-77
2022/10/08 14:12:45;;;;;;;2.95;0.52;;;21.90;55.60;;;;;;2566759;53;20940;-77